createdAt,value
2019-05-02T00:01:56.356Z,9.30
2019-05-02T00:04:25.683Z,9.30
2019-05-02T00:07:14.461Z,9.30
2019-05-02T00:09:48.476Z,9.20
2019-05-02T00:12:13.347Z,9.20
2019-05-02T00:14:42.693Z,9.20
2019-05-02T00:17:11.887Z,9.20
2019-05-02T00:19:45.177Z,9.20
2019-05-02T00:22:12.297Z,9.10
2019-05-02T00:24:42.301Z,9.10
2019-05-02T00:27:11.243Z,9.10
2019-05-02T00:29:40.468Z,9.10
2019-05-02T00:32:09.737Z,9.10
2019-05-02T00:34:38.668Z,9.10
2019-05-02T00:37:07.557Z,9.10
2019-05-02T00:39:36.344Z,9.00
2019-05-02T00:42:12.482Z,9.00
2019-05-02T00:44:36.050Z,8.90
2019-05-02T00:47:10.936Z,8.90
2019-05-02T00:49:37.281Z,8.90
2019-05-02T00:52:06.341Z,8.90
2019-05-02T00:57:41.390Z,8.80
2019-05-02T01:00:13.480Z,8.80
2019-05-02T01:02:55.090Z,8.80
2019-05-02T01:05:23.994Z,8.70
2019-05-02T01:07:55.954Z,8.70
2019-05-02T01:10:23.629Z,8.70
2019-05-02T01:12:52.543Z,8.70
2019-05-02T01:15:21.542Z,8.60
2019-05-02T01:17:50.743Z,8.50
2019-05-02T01:20:22.167Z,8.50
2019-05-02T01:22:52.305Z,8.50
2019-05-02T01:25:20.970Z,8.40
2019-05-02T01:27:51.501Z,8.40
2019-05-02T01:30:25.435Z,8.40
2019-05-02T01:32:55.988Z,8.30
2019-05-02T01:35:35.782Z,8.30
2019-05-02T01:38:21.496Z,8.30
2019-05-02T01:40:53.260Z,8.30
2019-05-02T01:43:25.734Z,8.30
2019-05-02T01:45:54.855Z,8.30
2019-05-02T01:48:23.800Z,8.20
2019-05-02T01:50:52.778Z,8.20
2019-05-02T01:53:21.659Z,8.20
2019-05-02T01:55:51.951Z,8.20
2019-05-02T01:58:22.817Z,8.20
2019-05-02T02:00:51.689Z,8.10
2019-05-02T02:03:20.586Z,8.10
2019-05-02T02:05:49.408Z,8.10
2019-05-02T02:08:18.217Z,8.10
2019-05-02T02:10:50.605Z,8.10
2019-05-02T02:13:21.094Z,8.00
2019-05-02T02:15:49.982Z,8.00
2019-05-02T02:18:22.103Z,8.00
2019-05-02T02:20:58.567Z,8.00
2019-05-02T02:23:35.269Z,7.90
2019-05-02T02:28:52.625Z,7.90
2019-05-02T02:31:22.364Z,7.90
2019-05-02T02:33:51.325Z,7.90
2019-05-02T02:36:29.904Z,8.00
2019-05-02T02:38:50.958Z,7.90
2019-05-02T02:41:19.952Z,7.90
2019-05-02T02:44:03.046Z,7.90
2019-05-02T02:46:40.172Z,7.90
2019-05-02T02:49:14.003Z,7.90
2019-05-02T02:51:39.999Z,7.90
2019-05-02T02:54:08.948Z,7.90
2019-05-02T02:56:40.581Z,7.80
2019-05-02T02:59:10.353Z,7.80
2019-05-02T03:01:39.337Z,7.80
2019-05-02T03:04:09.911Z,7.80
2019-05-02T03:06:44.769Z,7.80
2019-05-02T03:09:09.257Z,7.70
2019-05-02T03:11:45.526Z,7.80
2019-05-02T03:14:24.979Z,7.80
2019-05-02T03:16:53.962Z,7.70
2019-05-02T03:19:23.147Z,7.60
2019-05-02T03:22:00.969Z,7.60
2019-05-02T03:24:25.690Z,7.60
2019-05-02T03:26:55.660Z,7.60
2019-05-02T03:29:25.271Z,7.60
2019-05-02T03:32:12.466Z,7.50
2019-05-02T03:34:44.903Z,7.50
2019-05-02T03:37:03.288Z,7.50
2019-05-02T03:39:26.359Z,7.40
2019-05-02T03:42:03.133Z,7.40
2019-05-02T03:44:26.617Z,7.40
2019-05-02T03:47:02.066Z,7.40
2019-05-02T03:49:26.409Z,7.40
2019-05-02T03:51:55.846Z,7.30
2019-05-02T03:54:25.828Z,7.30
2019-05-02T03:56:54.681Z,7.40
2019-05-02T03:59:30.171Z,7.30
2019-05-02T04:01:54.753Z,7.30
2019-05-02T04:04:23.731Z,7.30
2019-05-02T04:06:55.069Z,7.30
2019-05-02T04:09:32.143Z,7.30
2019-05-02T04:12:00.809Z,7.30
2019-05-02T04:14:38.084Z,7.30
2019-05-02T04:17:00.509Z,7.30
2019-05-02T04:19:35.024Z,7.30
2019-05-02T04:22:01.710Z,7.30
2019-05-02T04:24:30.494Z,7.30
2019-05-02T04:26:59.369Z,7.30
2019-05-02T04:29:31.110Z,7.30
2019-05-02T04:32:04.397Z,7.30
2019-05-02T04:34:29.572Z,7.30
2019-05-02T04:37:00.970Z,7.30
2019-05-02T04:39:29.073Z,7.30
2019-05-02T04:41:58.616Z,7.40
2019-05-02T04:44:39.728Z,7.30
2019-05-02T04:47:09.842Z,7.30
2019-05-02T04:49:35.598Z,7.40
2019-05-02T04:52:06.874Z,7.40
2019-05-02T04:54:32.733Z,7.40
2019-05-02T04:57:02.328Z,7.40
2019-05-02T04:59:33.263Z,7.40
2019-05-02T05:02:02.108Z,7.40
2019-05-02T05:04:33.331Z,7.40
2019-05-02T05:07:01.598Z,7.40
2019-05-02T05:09:30.520Z,7.50
2019-05-02T05:12:02.541Z,7.60
2019-05-02T05:14:31.418Z,7.70
2019-05-02T05:17:00.432Z,7.70
2019-05-02T05:19:32.811Z,7.80
2019-05-02T05:22:04.831Z,7.90
2019-05-02T05:24:42.520Z,7.90
2019-05-02T05:27:13.383Z,8.00
2019-05-02T05:29:42.352Z,8.00
2019-05-02T05:32:11.321Z,8.10
2019-05-02T05:34:40.204Z,8.20
2019-05-02T05:37:13.205Z,8.40
2019-05-02T05:39:43.143Z,8.50
2019-05-02T05:42:10.676Z,8.50
2019-05-02T05:44:40.046Z,8.60
2019-05-02T05:47:12.248Z,8.60
2019-05-02T05:49:42.215Z,8.70
2019-05-02T05:52:11.375Z,8.80
2019-05-02T05:54:41.976Z,8.90
2019-05-02T05:57:12.163Z,9.00
2019-05-02T05:59:41.917Z,9.00
2019-05-02T06:02:14.452Z,9.10
2019-05-02T06:04:41.501Z,9.10
2019-05-02T06:07:10.553Z,9.20
2019-05-02T06:09:39.530Z,9.30
2019-05-02T06:12:08.583Z,9.30
2019-05-02T06:14:37.556Z,9.40
2019-05-02T06:17:06.376Z,9.40
2019-05-02T06:19:35.353Z,9.50
2019-05-02T06:22:07.705Z,9.60
2019-05-02T06:24:36.517Z,9.70
2019-05-02T06:27:05.600Z,9.70
2019-05-02T06:29:34.387Z,9.80
2019-05-02T06:32:03.580Z,9.90
2019-05-02T06:34:32.401Z,10.00
2019-05-02T06:37:01.571Z,10.00
2019-05-02T06:39:31.921Z,10.10
2019-05-02T06:42:01.112Z,10.20
2019-05-02T06:44:29.951Z,10.20
2019-05-02T06:47:02.241Z,10.30
2019-05-02T06:49:29.419Z,10.40
2019-05-02T06:51:58.596Z,10.50
2019-05-02T06:54:27.441Z,10.60
2019-05-02T06:56:56.243Z,10.70
2019-05-02T06:59:25.137Z,10.80
2019-05-02T07:01:57.366Z,10.90
2019-05-02T07:04:25.015Z,11.00
2019-05-02T07:06:58.845Z,11.10
2019-05-02T07:09:24.853Z,11.20
2019-05-02T07:11:57.396Z,11.30
2019-05-02T07:14:25.631Z,11.40
2019-05-02T07:17:11.269Z,11.50
2019-05-02T07:19:41.776Z,11.60
2019-05-02T07:22:10.793Z,11.70
2019-05-02T07:24:39.726Z,11.80
2019-05-02T07:27:08.517Z,11.90
2019-05-02T07:29:37.450Z,12.00
2019-05-02T07:32:06.592Z,12.10
2019-05-02T07:34:35.538Z,12.30
2019-05-02T07:37:08.548Z,12.40
2019-05-02T07:39:36.109Z,12.50
2019-05-02T07:42:07.685Z,12.60
2019-05-02T07:44:36.247Z,12.70
2019-05-02T07:47:05.212Z,12.80
2019-05-02T07:49:34.378Z,12.90
2019-05-02T07:52:03.533Z,12.90
2019-05-02T07:54:32.412Z,13.00
2019-05-02T07:57:02.424Z,13.00
2019-05-02T07:59:31.512Z,13.00
2019-05-02T08:02:00.782Z,13.00
2019-05-02T08:04:29.715Z,13.10
2019-05-02T08:06:58.815Z,13.20
2019-05-02T08:09:27.693Z,13.20
2019-05-02T08:11:56.541Z,13.40
2019-05-02T08:14:29.201Z,13.40
2019-05-02T08:17:05.599Z,13.50
2019-05-02T08:19:29.818Z,13.60
2019-05-02T08:21:59.270Z,13.70
2019-05-02T08:24:28.073Z,13.80
2019-05-02T08:27:07.595Z,14.00
2019-05-02T08:29:37.856Z,14.20
2019-05-02T08:32:06.886Z,14.30
2019-05-02T08:34:36.030Z,14.50
2019-05-02T08:37:05.182Z,14.60
2019-05-02T08:39:35.251Z,14.70
2019-05-02T08:42:04.619Z,14.80
2019-05-02T08:44:33.440Z,14.90
2019-05-02T08:47:02.289Z,15.00
2019-05-02T08:49:31.077Z,15.20
2019-05-02T08:51:59.951Z,15.30
2019-05-02T08:54:32.902Z,15.40
2019-05-02T08:57:00.634Z,15.50
2019-05-02T08:59:29.658Z,15.60
2019-05-02T09:01:58.578Z,15.60
2019-05-02T09:04:29.130Z,15.70
2019-05-02T09:07:00.512Z,15.80
2019-05-02T09:09:29.508Z,15.80
2019-05-02T09:12:09.713Z,16.00
2019-05-02T09:14:29.029Z,16.10
2019-05-02T09:17:00.329Z,16.30
2019-05-02T09:19:31.473Z,16.50
2019-05-02T09:21:59.155Z,16.70
2019-05-02T09:24:28.049Z,16.90
2019-05-02T09:26:58.094Z,17.10
2019-05-02T09:29:27.078Z,17.10
2019-05-02T09:31:55.932Z,17.10
2019-05-02T09:34:26.719Z,17.10
2019-05-02T09:36:55.398Z,17.00
2019-05-02T09:39:27.427Z,17.00
2019-05-02T09:41:54.826Z,17.00
2019-05-02T09:44:23.772Z,17.10
2019-05-02T09:46:56.865Z,17.10
2019-05-02T09:49:23.309Z,17.20
2019-05-02T09:51:59.222Z,17.20
2019-05-02T09:54:23.242Z,17.20
2019-05-02T09:56:52.598Z,17.20
2019-05-02T09:59:29.954Z,17.10
2019-05-02T10:01:53.725Z,17.20
2019-05-02T10:04:25.523Z,17.20
2019-05-02T10:06:54.436Z,17.10
2019-05-02T10:09:27.138Z,17.30
2019-05-02T10:11:54.323Z,17.50
2019-05-02T10:14:23.231Z,17.70
2019-05-02T10:16:52.990Z,17.80
2019-05-02T10:19:25.863Z,18.00
2019-05-02T10:21:56.191Z,18.10
2019-05-02T10:24:23.300Z,18.20
2019-05-02T10:26:55.303Z,18.30
2019-05-02T10:29:28.269Z,18.50
2019-05-02T10:31:53.584Z,18.60
2019-05-02T10:34:22.864Z,18.80
2019-05-02T10:36:58.749Z,18.90
2019-05-02T10:39:23.424Z,18.90
2019-05-02T10:41:57.460Z,19.00
2019-05-02T10:44:27.108Z,19.10
2019-05-02T10:46:57.190Z,19.10
2019-05-02T10:49:39.513Z,19.20
2019-05-02T10:52:08.343Z,19.40
2019-05-02T10:54:37.455Z,19.60
2019-05-02T10:57:06.636Z,19.80
2019-05-02T10:59:38.005Z,19.80
2019-05-02T11:02:14.457Z,19.70
2019-05-02T11:04:47.716Z,19.80
2019-05-02T11:07:17.075Z,19.90
2019-05-02T11:09:48.733Z,19.90
2019-05-02T11:12:24.314Z,20.00
2019-05-02T11:14:51.725Z,20.00
2019-05-02T11:17:22.669Z,19.80
2019-05-02T11:19:56.598Z,19.80
2019-05-02T11:22:25.676Z,19.80
2019-05-02T11:24:54.521Z,19.70
2019-05-02T11:27:23.558Z,19.80
2019-05-02T11:29:52.681Z,19.80
2019-05-02T11:32:22.121Z,19.90
2019-05-02T11:34:52.517Z,20.20
2019-05-02T11:37:22.641Z,20.40
2019-05-02T11:39:58.871Z,20.50
2019-05-02T11:42:27.104Z,20.60
2019-05-02T11:44:53.794Z,20.70
2019-05-02T11:47:26.475Z,20.70
2019-05-02T11:52:44.307Z,20.90
2019-05-02T11:55:13.221Z,21.10
2019-05-02T11:57:42.717Z,21.20
2019-05-02T12:00:12.423Z,21.20
2019-05-02T12:02:43.351Z,21.40
2019-05-02T12:08:13.451Z,21.60
2019-05-02T12:10:42.467Z,21.80
2019-05-02T12:13:15.750Z,22.00
2019-05-02T12:15:46.263Z,22.20
2019-05-02T12:18:16.909Z,22.40
2019-05-02T12:20:45.904Z,22.70
2019-05-02T12:23:14.848Z,22.80
2019-05-02T12:25:43.758Z,22.80
2019-05-02T12:28:12.674Z,22.80
2019-05-02T12:30:41.971Z,22.40
2019-05-02T12:33:12.283Z,22.50
2019-05-02T12:35:44.220Z,22.50
2019-05-02T12:38:13.172Z,22.50
2019-05-02T12:40:42.382Z,22.50
2019-05-02T12:43:11.993Z,22.40
2019-05-02T12:45:42.195Z,22.60
2019-05-02T12:48:12.929Z,22.60
2019-05-02T12:50:41.971Z,22.70
2019-05-02T12:53:12.603Z,22.70
2019-05-02T12:55:42.273Z,22.60
2019-05-02T12:58:12.481Z,22.60
2019-05-02T13:00:43.033Z,22.80
2019-05-02T13:03:17.272Z,22.80
2019-05-02T13:05:46.120Z,22.70
2019-05-02T13:08:14.953Z,22.00
2019-05-02T13:10:48.774Z,21.20
2019-05-02T13:13:18.056Z,21.30
2019-05-02T13:15:47.180Z,21.40
2019-05-02T13:18:18.759Z,21.40
2019-05-02T13:20:47.205Z,21.40
2019-05-02T13:23:22.413Z,21.30
2019-05-02T13:25:51.809Z,21.10
2019-05-02T13:28:22.327Z,20.90
2019-05-02T13:30:59.220Z,20.90
2019-05-02T13:33:32.447Z,20.70
2019-05-02T13:36:02.398Z,20.60
2019-05-02T13:38:32.835Z,20.50
2019-05-02T13:41:02.564Z,20.40
2019-05-02T13:43:33.357Z,20.20
2019-05-02T13:46:03.926Z,20.10
2019-05-02T13:48:33.082Z,19.60
2019-05-02T13:51:03.922Z,19.50
2019-05-02T13:53:32.958Z,18.80
2019-05-02T13:56:22.037Z,17.80
2019-05-02T13:58:51.866Z,17.50
2019-05-02T14:01:22.375Z,17.00
2019-05-02T14:03:53.684Z,16.70
2019-05-02T14:06:29.502Z,16.50
2019-05-02T14:08:57.195Z,16.00
2019-05-02T14:11:45.860Z,15.70
2019-05-02T14:14:14.633Z,15.60
2019-05-02T14:16:43.551Z,15.60
2019-05-02T14:19:12.669Z,15.60
2019-05-02T14:21:42.138Z,15.60
2019-05-02T14:24:11.829Z,15.50
2019-05-02T14:26:43.298Z,15.50
2019-05-02T14:29:14.625Z,15.50
2019-05-02T14:31:42.287Z,15.50
2019-05-02T14:34:28.932Z,15.40
2019-05-02T14:36:59.445Z,15.40
2019-05-02T14:39:28.579Z,15.40
2019-05-02T14:41:57.564Z,15.40
2019-05-02T14:44:50.793Z,15.40
2019-05-02T14:46:58.238Z,15.50
2019-05-02T14:49:27.104Z,15.50
2019-05-02T14:51:57.280Z,15.50
2019-05-02T14:54:27.181Z,15.60
2019-05-02T14:57:06.749Z,15.60
2019-05-02T14:59:38.790Z,15.50
2019-05-02T15:02:09.572Z,15.50
2019-05-02T15:04:44.395Z,15.50
2019-05-02T15:07:09.118Z,15.60
2019-05-02T15:09:38.359Z,15.60
2019-05-02T15:12:14.271Z,15.70
2019-05-02T15:14:38.100Z,15.70
2019-05-02T15:17:07.770Z,15.70
2019-05-02T15:19:37.001Z,15.80
2019-05-02T15:22:06.063Z,15.80
2019-05-02T15:24:37.388Z,15.80
2019-05-02T15:27:11.791Z,15.80
2019-05-02T15:29:36.885Z,15.80
2019-05-02T15:32:10.131Z,15.90
2019-05-02T15:34:56.106Z,15.90
2019-05-02T15:37:25.912Z,15.90
2019-05-02T15:42:25.946Z,15.90
2019-05-02T15:44:57.048Z,15.90
2019-05-02T15:47:25.651Z,15.90
2019-05-02T15:49:54.537Z,16.00
2019-05-02T15:52:27.784Z,16.00
2019-05-02T15:54:59.756Z,15.90
2019-05-02T15:57:25.762Z,15.80
2019-05-02T15:59:54.835Z,15.50
2019-05-02T16:02:26.726Z,15.30
2019-05-02T16:04:56.950Z,15.40
2019-05-02T16:10:22.536Z,15.60
2019-05-02T16:12:52.834Z,15.50
2019-05-02T16:15:26.290Z,15.60
2019-05-02T16:17:56.754Z,15.50
2019-05-02T16:20:46.917Z,15.50
2019-05-02T16:23:12.252Z,15.50
2019-05-02T16:25:42.972Z,15.40
2019-05-02T16:28:12.746Z,15.40
2019-05-02T16:30:47.357Z,15.40
2019-05-02T16:33:18.937Z,15.40
2019-05-02T16:35:46.249Z,15.40
2019-05-02T16:38:14.914Z,15.40
2019-05-02T16:40:43.795Z,15.40
2019-05-02T16:43:12.585Z,15.40
2019-05-02T16:45:41.667Z,15.40
2019-05-02T16:48:12.166Z,15.40
2019-05-02T16:50:42.064Z,15.30
2019-05-02T16:53:11.777Z,15.30
2019-05-02T16:55:43.407Z,15.20
2019-05-02T16:58:11.885Z,15.10
2019-05-02T17:00:42.698Z,15.00
2019-05-02T17:03:12.627Z,14.90
2019-05-02T17:05:44.407Z,14.90
2019-05-02T17:08:20.183Z,14.90
2019-05-02T17:10:53.746Z,14.80
2019-05-02T17:13:22.451Z,14.80
2019-05-02T17:15:52.285Z,14.70
2019-05-02T17:18:22.795Z,14.60
2019-05-02T17:20:55.599Z,14.60
2019-05-02T17:23:22.603Z,14.60
2019-05-02T17:25:52.200Z,14.40
2019-05-02T17:28:22.285Z,14.30
2019-05-02T17:30:52.494Z,14.20
2019-05-02T17:33:21.841Z,14.30
2019-05-02T17:35:52.220Z,14.30
2019-05-02T17:38:27.315Z,14.30
2019-05-02T17:40:54.357Z,14.40
2019-05-02T17:43:22.803Z,14.30
2019-05-02T17:45:51.795Z,14.30
2019-05-02T17:48:20.859Z,14.40
2019-05-02T17:50:55.771Z,14.40
2019-05-02T17:53:24.841Z,14.50
2019-05-02T17:55:53.718Z,14.40
2019-05-02T17:58:22.536Z,14.30
2019-05-02T18:00:56.949Z,14.20
2019-05-02T18:03:30.718Z,14.30
2019-05-02T18:05:54.201Z,14.20
2019-05-02T18:08:23.127Z,14.10
2019-05-02T18:10:58.535Z,13.90
2019-05-02T18:13:23.282Z,14.00
2019-05-02T18:15:53.498Z,14.00
2019-05-02T18:18:22.586Z,13.90
2019-05-02T18:20:52.951Z,13.70
2019-05-02T18:23:25.854Z,13.70
2019-05-02T18:25:52.718Z,13.80
2019-05-02T18:28:26.354Z,13.80
2019-05-02T18:30:57.119Z,13.80
2019-05-02T18:33:24.335Z,13.80
2019-05-02T18:35:53.279Z,13.70
2019-05-02T18:38:22.382Z,13.50
2019-05-02T18:40:52.420Z,13.50
2019-05-02T18:43:22.327Z,13.50
2019-05-02T18:45:51.535Z,13.60
2019-05-02T18:48:21.885Z,13.60
2019-05-02T18:50:52.677Z,13.60
2019-05-02T18:53:25.740Z,13.70
2019-05-02T18:55:56.627Z,13.70
2019-05-02T18:58:23.003Z,13.60
2019-05-02T19:00:52.114Z,13.50
2019-05-02T19:03:22.871Z,13.40
2019-05-02T19:05:57.075Z,13.30
2019-05-02T19:08:29.067Z,13.30
2019-05-02T19:11:04.461Z,13.20
2019-05-02T19:13:23.557Z,13.00
2019-05-02T19:15:53.396Z,12.90
2019-05-02T19:18:22.557Z,12.80
2019-05-02T19:20:57.532Z,12.60
2019-05-02T19:23:25.280Z,12.10
2019-05-02T19:25:54.348Z,11.70
2019-05-02T19:28:38.348Z,11.40
2019-05-02T19:31:07.566Z,10.90
2019-05-02T19:33:37.592Z,10.60
2019-05-02T19:36:06.986Z,10.30
2019-05-02T19:38:35.912Z,10.40
2019-05-02T19:41:08.708Z,10.30
2019-05-02T19:43:40.328Z,10.10
2019-05-02T19:46:05.987Z,9.90
2019-05-02T19:48:36.923Z,9.90
2019-05-02T19:51:05.263Z,9.90
2019-05-02T19:53:34.418Z,9.90
2019-05-02T19:56:03.281Z,9.90
2019-05-02T19:58:36.780Z,9.90
2019-05-02T20:01:04.294Z,9.90
2019-05-02T20:03:33.443Z,9.80
2019-05-02T20:06:06.078Z,9.80
2019-05-02T20:08:33.145Z,9.70
2019-05-02T20:11:02.334Z,9.70
2019-05-02T20:13:32.726Z,9.90
2019-05-02T20:16:05.766Z,9.90
2019-05-02T20:18:42.079Z,10.00
2019-05-02T20:21:12.199Z,10.20
2019-05-02T20:23:39.546Z,10.10
2019-05-02T20:26:09.600Z,10.20
2019-05-02T20:28:39.136Z,10.30
2019-05-02T20:31:08.006Z,10.20
2019-05-02T20:33:36.945Z,10.10
2019-05-02T20:36:05.852Z,10.10
2019-05-02T20:38:34.761Z,10.20
2019-05-02T20:41:03.609Z,10.30
2019-05-02T20:43:32.510Z,10.30
2019-05-02T20:46:02.590Z,10.30
2019-05-02T20:48:32.207Z,10.40
2019-05-02T20:51:02.670Z,10.40
2019-05-02T20:53:34.080Z,10.50
2019-05-02T20:56:02.328Z,10.50
2019-05-02T20:58:32.609Z,10.50
2019-05-02T21:01:07.795Z,10.50
2019-05-02T21:03:32.296Z,10.50
2019-05-02T21:06:04.854Z,10.50
2019-05-02T21:08:34.985Z,10.60
2019-05-02T21:11:05.250Z,10.50
2019-05-02T21:13:34.186Z,10.40
2019-05-02T21:16:03.131Z,10.40
2019-05-02T21:18:32.830Z,10.40
2019-05-02T21:21:01.918Z,10.40
2019-05-02T21:23:41.940Z,10.50
2019-05-02T21:26:01.892Z,10.50
2019-05-02T21:28:32.129Z,10.60
2019-05-02T21:31:02.883Z,10.60
2019-05-02T21:33:39.017Z,10.60
2019-05-02T21:36:07.957Z,10.60
2019-05-02T21:38:36.864Z,10.60
2019-05-02T21:41:09.895Z,10.60
2019-05-02T21:43:38.910Z,10.70
2019-05-02T21:46:07.817Z,10.70
2019-05-02T21:48:36.709Z,10.70
2019-05-02T21:51:13.370Z,10.70
2019-05-02T21:53:55.069Z,10.70
2019-05-02T21:56:22.131Z,10.80
2019-05-02T21:59:08.100Z,10.80
2019-05-02T22:01:42.245Z,10.80
2019-05-02T22:04:13.111Z,10.80
2019-05-02T22:06:42.700Z,10.80
2019-05-02T22:09:12.316Z,10.80
2019-05-02T22:11:43.002Z,10.90
2019-05-02T22:14:13.425Z,10.90
2019-05-02T22:16:42.565Z,10.90
2019-05-02T22:19:11.377Z,10.90
2019-05-02T22:21:42.889Z,10.90
2019-05-02T22:24:14.121Z,10.90
2019-05-02T22:26:43.565Z,10.90
2019-05-02T22:29:12.789Z,10.90
2019-05-02T22:31:43.057Z,10.90
2019-05-02T22:34:12.896Z,10.90
2019-05-02T22:36:43.073Z,10.90
2019-05-02T22:39:16.253Z,10.90
2019-05-02T22:41:45.371Z,10.90
2019-05-02T22:44:14.422Z,10.80
2019-05-02T22:46:44.389Z,10.80
2019-05-02T22:49:14.746Z,10.70
2019-05-02T22:51:44.134Z,10.70
2019-05-02T22:54:24.016Z,10.60
2019-05-02T22:56:43.618Z,10.50
2019-05-02T22:59:12.684Z,10.40
2019-05-02T23:01:42.142Z,10.40
2019-05-02T23:04:12.754Z,10.40
2019-05-02T23:06:43.997Z,10.50
2019-05-02T23:09:12.894Z,10.40
2019-05-02T23:11:42.631Z,10.40
2019-05-02T23:14:12.265Z,10.30
2019-05-02T23:16:42.745Z,10.40
2019-05-02T23:19:12.286Z,10.30
2019-05-02T23:21:42.270Z,10.40
2019-05-02T23:24:14.604Z,10.50
2019-05-02T23:26:54.181Z,10.50
2019-05-02T23:29:23.229Z,10.50
2019-05-02T23:31:52.097Z,10.60
2019-05-02T23:34:23.387Z,10.60
2019-05-02T23:36:52.222Z,10.60
2019-05-02T23:39:21.518Z,10.70
2019-05-02T23:41:52.380Z,10.70
2019-05-02T23:44:22.880Z,10.80
2019-05-02T23:46:52.108Z,10.80
2019-05-02T23:49:22.003Z,10.80
2019-05-02T23:51:51.280Z,10.80
2019-05-02T23:54:22.043Z,10.80
2019-05-02T23:56:51.001Z,10.80
2019-05-02T23:59:19.834Z,10.80
